Deford, Michigan
Current Conditions -  °F | °C
As of 11:15 PM on Monday 22 Dec 2014 (Local Time) from KCFS Reporting Station
Overcast Overcast  
Wind Chill: 27°   Ceiling: 4900
Heat Index: 34°   Visibility: 7mi
Dew Point: 30°   Wind: 8mph
Humidity: 85%   Direction: 110°ESE
Pressure: 29.89"   Gusts: NA
Location:  43.51°N, 83.19°W
Report Text: KCFS 230415Z AUTO 11007KT 7SM BKN049 BKN070 OVC090 01/M01 A2989 RMK AO2 T00101013
Loading
Personal Weather Stations






























Interactive Weather Map New forecast layout! Learn more

10-Day Weather Forecast

Advertisements
Track Severe Weather on mobile